Time;durP1;ratioP1;P1;durP2;ratioP2;P2;SDS_P1;SDS_P2;PMS_P1;PMS_P2;Temp;Humidity;BMP_temperature;BMP_pressure;BME280_temperature;BME280_humidity;BME280_pressure;Samples;Min_cycle;Max_cycle;Signal;HPM_P1;HPM_P2
2023/09/10 00:00:29;;;;;;;;;;;20.70;99.90;;;;;;5027120;28;20302;-80
2023/09/10 00:02:55;;;;;;;;;;;20.80;99.90;;;;;;5029973;28;20315;-79
2023/09/10 00:05:21;;;;;;;;;;;20.80;99.90;;;;;;5026057;28;19912;-81
2023/09/10 00:07:46;;;;;;;;;;;20.80;99.90;;;;;;5026915;28;20387;-79
2023/09/10 00:10:12;;;;;;;;;;;20.80;99.90;;;;;;5023396;28;19943;-80
2023/09/10 00:12:37;;;;;;;;;;;20.80;99.90;;;;;;5026676;28;20387;-81
2023/09/10 00:15:04;;;;;;;;;;;20.80;99.90;;;;;;5023078;28;19912;-83
2023/09/10 00:17:29;;;;;;;;;;;20.80;99.90;;;;;;5019221;28;20445;-81
2023/09/10 00:19:55;;;;;;;;;;;20.80;99.90;;;;;;5021830;28;19949;-82
2023/09/10 00:22:20;;;;;;;;;;;20.80;99.90;;;;;;5026650;28;19905;-81
2023/09/10 00:24:46;;;;;;;;;;;20.80;99.90;;;;;;5029869;28;19908;-79
2023/09/10 00:27:13;;;;;;;;;;;20.80;99.90;;;;;;5028745;28;20440;-79
2023/09/10 00:29:38;;;;;;;;;;;20.80;99.90;;;;;;5029723;28;20011;-80
2023/09/10 00:32:04;;;;;;;;;;;20.70;99.90;;;;;;5028779;28;19971;-82
2023/09/10 00:34:30;;;;;;;;;;;20.60;99.90;;;;;;5029799;28;19974;-80
2023/09/10 00:36:56;;;;;;;;;;;20.60;99.90;;;;;;5033403;28;19959;-81
2023/09/10 00:39:22;;;;;;;;;;;20.50;99.90;;;;;;5029236;28;19905;-81
2023/09/10 00:41:48;;;;;;;;;;;20.50;99.90;;;;;;5032759;28;20000;-81
2023/09/10 00:44:14;;;;;;;;;;;20.40;99.90;;;;;;5030669;28;19913;-80
2023/09/10 00:46:39;;;;;;;;;;;20.40;99.90;;;;;;5028156;28;19916;-80
2023/09/10 00:49:05;;;;;;;;;;;20.40;99.90;;;;;;5028664;28;19917;-79
2023/09/10 00:51:31;;;;;;;;;;;20.40;99.90;;;;;;5028232;28;20420;-81
2023/09/10 00:53:57;;;;;;;;;;;20.40;99.90;;;;;;5028656;28;19905;-79
2023/09/10 00:56:24;;;;;;;;;;;20.40;99.90;;;;;;5027720;28;19911;-81
2023/09/10 00:58:50;;;;;;;;;;;20.50;99.90;;;;;;5028291;28;20002;-81
2023/09/10 01:01:15;;;;;;;;;;;20.60;99.90;;;;;;5027086;28;19917;-80
2023/09/10 01:03:41;;;;;;;;;;;20.50;99.90;;;;;;5027780;28;19913;-80
2023/09/10 01:06:07;;;;;;;;;;;20.50;99.90;;;;;;5026893;28;19912;-79
2023/09/10 01:08:32;;;;;;;;;;;20.50;99.90;;;;;;5028802;28;19904;-80
2023/09/10 01:10:58;;;;;;;;;;;20.40;99.90;;;;;;5031202;28;19905;-81
2023/09/10 01:13:30;;;;;;;;;;;20.40;99.90;;;;;;5028803;28;20293;-79
2023/09/10 01:15:59;;;;;;;;;;;20.40;99.90;;;;;;5028393;28;19944;-81
2023/09/10 01:18:35;;;;;;;;;;;20.40;99.90;;;;;;5027565;28;19905;-81
2023/09/10 01:21:07;;;;;;;;;;;20.50;99.90;;;;;;5033734;28;19909;-82
2023/09/10 01:23:38;;;;;;;;;;;20.40;99.90;;;;;;5025397;28;19953;-80
2023/09/10 01:26:04;;;;;;;;;;;20.30;99.90;;;;;;5023461;28;20332;-80
2023/09/10 01:28:29;;;;;;;;;;;20.30;99.90;;;;;;5025181;28;19905;-81
2023/09/10 01:30:55;;;;;;;;;;;20.20;99.90;;;;;;5022002;28;20042;-77
2023/09/10 01:33:27;;;;;;;;;;;20.20;99.90;;;;;;5025847;28;19959;-79
2023/09/10 01:36:22;;;;;;;;;;;20.20;99.90;;;;;;5029328;28;19917;-79
2023/09/10 01:38:57;;;;;;;;;;;20.30;99.90;;;;;;5033585;28;19905;-78
2023/09/10 01:41:25;;;;;;;;;;;20.30;99.90;;;;;;5025059;28;19980;-80
2023/09/10 01:43:51;;;;;;;;;;;20.30;99.90;;;;;;5031986;28;19961;-81
2023/09/10 01:46:17;;;;;;;;;;;20.30;99.90;;;;;;5024197;28;19913;-78
2023/09/10 01:48:43;;;;;;;;;;;20.20;99.90;;;;;;5029909;28;20359;-79
2023/09/10 01:51:09;;;;;;;;;;;20.20;99.90;;;;;;5023229;28;19941;-79
2023/09/10 01:53:34;;;;;;;;;;;20.20;99.90;;;;;;5034404;28;19988;-81
2023/09/10 01:56:00;;;;;;;;;;;20.10;99.90;;;;;;5023887;28;19913;-82
2023/09/10 01:58:25;;;;;;;;;;;20.10;99.90;;;;;;5029884;28;19967;-79
2023/09/10 02:00:51;;;;;;;;;;;20.00;99.90;;;;;;5023628;28;20036;-83
2023/09/10 02:03:17;;;;;;;;;;;19.90;99.90;;;;;;5044869;28;19912;-82
2023/09/10 02:05:43;;;;;;;;;;;19.90;99.90;;;;;;5023086;28;19909;-82
2023/09/10 02:08:08;;;;;;;;;;;19.90;99.90;;;;;;5029912;28;19911;-81
2023/09/10 02:10:34;;;;;;;;;;;19.80;99.90;;;;;;5027096;28;19905;-79
2023/09/10 02:13:00;;;;;;;;;;;19.70;99.90;;;;;;5032752;28;20300;-81
2023/09/10 02:15:26;;;;;;;;;;;19.80;99.90;;;;;;5027522;28;20360;-79
2023/09/10 02:17:55;;;;;;;;;;;19.80;99.90;;;;;;5031381;28;19909;-82
2023/09/10 02:20:21;;;;;;;;;;;19.80;99.90;;;;;;5026911;28;19905;-82
2023/09/10 02:22:47;;;;;;;;;;;19.80;99.90;;;;;;5033012;28;19905;-82
2023/09/10 02:25:12;;;;;;;;;;;19.80;99.90;;;;;;5025966;28;19910;-78
2023/09/10 02:27:38;;;;;;;;;;;19.70;99.90;;;;;;5031689;28;20304;-80
2023/09/10 02:30:04;;;;;;;;;;;19.70;99.90;;;;;;5019640;28;19906;-79
2023/09/10 02:32:31;;;;;;;;;;;19.70;99.90;;;;;;5048215;28;19905;-81
2023/09/10 02:34:56;;;;;;;;;;;19.70;99.90;;;;;;5027208;28;19991;-81
2023/09/10 02:37:22;;;;;;;;;;;19.70;99.90;;;;;;5037023;28;19921;-81
2023/09/10 02:39:47;;;;;;;;;;;19.60;99.90;;;;;;5033287;28;19967;-82
2023/09/10 02:42:13;;;;;;;;;;;19.60;99.90;;;;;;5033263;28;19916;-81
2023/09/10 02:44:38;;;;;;;;;;;19.60;99.90;;;;;;5028972;28;19940;-81
2023/09/10 02:47:04;;;;;;;;;;;19.60;99.90;;;;;;5033053;28;20285;-80
2023/09/10 02:49:29;;;;;;;;;;;19.50;99.90;;;;;;5028095;28;19906;-82
2023/09/10 02:51:55;;;;;;;;;;;19.40;99.90;;;;;;5034281;28;19963;-82
2023/09/10 02:54:21;;;;;;;;;;;19.40;99.90;;;;;;5028977;28;19906;-82
2023/09/10 02:56:47;;;;;;;;;;;19.40;99.90;;;;;;5033584;28;19914;-79
2023/09/10 02:59:19;;;;;;;;;;;19.40;99.90;;;;;;5027693;28;20379;-81
2023/09/10 03:01:45;;;;;;;;;;;19.40;99.90;;;;;;5018188;28;19913;-82
2023/09/10 03:04:10;;;;;;;;;;;19.40;99.90;;;;;;5018050;28;19913;-82
2023/09/10 03:06:36;;;;;;;;;;;19.30;99.90;;;;;;5023782;28;19913;-82
2023/09/10 03:09:02;;;;;;;;;;;19.20;99.90;;;;;;5027756;28;19913;-81
2023/09/10 03:11:31;;;;;;;;;;;19.10;99.90;;;;;;5032757;28;19905;-81
2023/09/10 03:13:56;;;;;;;;;;;19.10;99.90;;;;;;5028183;28;20000;-81
2023/09/10 03:16:23;;;;;;;;;;;19.00;99.90;;;;;;5032894;28;19933;-81
2023/09/10 03:18:49;;;;;;;;;;;19.00;99.90;;;;;;5025921;28;19909;-82
2023/09/10 03:21:14;;;;;;;;;;;19.00;99.90;;;;;;5031442;28;19915;-81
2023/09/10 03:23:40;;;;;;;;;;;19.00;99.90;;;;;;5027131;28;19917;-82
2023/09/10 03:26:09;;;;;;;;;;;19.00;99.90;;;;;;5030983;28;19982;-82
2023/09/10 03:28:35;;;;;;;;;;;18.90;99.90;;;;;;5031749;28;20003;-82
2023/09/10 03:31:00;;;;;;;;;;;18.90;99.90;;;;;;5031520;28;19955;-81
2023/09/10 03:33:25;;;;;;;;;;;18.90;99.90;;;;;;5026527;28;19985;-81
2023/09/10 03:35:51;;;;;;;;;;;18.80;99.90;;;;;;5031824;28;19940;-82
2023/09/10 03:38:16;;;;;;;;;;;18.80;99.90;;;;;;5031570;28;19905;-82
2023/09/10 03:40:42;;;;;;;;;;;18.80;99.90;;;;;;5030710;28;20344;-83
2023/09/10 03:43:08;;;;;;;;;;;18.70;99.90;;;;;;5033731;28;20282;-82
2023/09/10 03:45:33;;;;;;;;;;;18.70;99.90;;;;;;5030586;28;19955;-82
2023/09/10 03:47:59;;;;;;;;;;;18.60;99.90;;;;;;5031595;28;20028;-82
2023/09/10 03:50:24;;;;;;;;;;;18.60;99.90;;;;;;5031674;28;20040;-82
2023/09/10 03:52:50;;;;;;;;;;;18.50;99.90;;;;;;5026817;28;20012;-82
2023/09/10 03:55:16;;;;;;;;;;;18.40;99.90;;;;;;5032030;28;19913;-81
2023/09/10 03:57:41;;;;;;;;;;;18.40;99.90;;;;;;5024614;28;19905;-80
2023/09/10 04:00:08;;;;;;;;;;;18.30;99.90;;;;;;5033549;28;19968;-82
2023/09/10 04:02:33;;;;;;;;;;;18.30;99.90;;;;;;5023380;28;20443;-82
2023/09/10 04:04:59;;;;;;;;;;;18.20;99.90;;;;;;5030972;28;19912;-82
2023/09/10 04:07:24;;;;;;;;;;;18.20;99.90;;;;;;5024924;28;19917;-82
2023/09/10 04:09:50;;;;;;;;;;;18.20;99.90;;;;;;5031095;28;20269;-82
2023/09/10 04:12:16;;;;;;;;;;;18.10;99.90;;;;;;5025184;28;19909;-82
2023/09/10 04:14:41;;;;;;;;;;;18.10;99.90;;;;;;5029719;28;19992;-81
2023/09/10 04:17:07;;;;;;;;;;;18.10;99.90;;;;;;5024683;28;19909;-82
2023/09/10 04:19:33;;;;;;;;;;;18.10;99.90;;;;;;5030772;28;19905;-81
2023/09/10 04:21:58;;;;;;;;;;;18.10;99.90;;;;;;5024699;28;19960;-82
2023/09/10 04:24:24;;;;;;;;;;;18.10;99.90;;;;;;5029992;28;19909;-82
2023/09/10 04:26:49;;;;;;;;;;;18.10;99.90;;;;;;5031125;28;20353;-82
2023/09/10 04:29:15;;;;;;;;;;;18.10;99.90;;;;;;5023404;28;19909;-82
2023/09/10 04:31:42;;;;;;;;;;;18.10;99.90;;;;;;5024105;28;20341;-82
2023/09/10 04:34:08;;;;;;;;;;;18.10;99.90;;;;;;5023226;28;19913;-81
2023/09/10 04:36:33;;;;;;;;;;;18.10;99.90;;;;;;5030763;28;19917;-82
2023/09/10 04:38:59;;;;;;;;;;;18.10;99.90;;;;;;5030463;28;19905;-81
2023/09/10 04:41:24;;;;;;;;;;;18.10;99.90;;;;;;5023461;28;19905;-82
2023/09/10 04:43:50;;;;;;;;;;;18.10;99.90;;;;;;5032763;28;19909;-81
2023/09/10 04:46:15;;;;;;;;;;;18.10;99.90;;;;;;5024606;28;19909;-81
2023/09/10 04:48:41;;;;;;;;;;;18.10;99.90;;;;;;5028878;28;19909;-82
2023/09/10 04:51:07;;;;;;;;;;;18.10;99.90;;;;;;5024699;28;19916;-82
2023/09/10 04:53:33;;;;;;;;;;;18.10;99.90;;;;;;5023152;28;19909;-82
2023/09/10 04:55:59;;;;;;;;;;;18.00;99.90;;;;;;5024764;28;19928;-82
2023/09/10 04:58:24;;;;;;;;;;;18.00;99.90;;;;;;5030422;28;19909;-82
2023/09/10 05:00:50;;;;;;;;;;;17.90;99.90;;;;;;5024712;28;19905;-80
2023/09/10 05:03:16;;;;;;;;;;;17.90;99.90;;;;;;5034186;28;19954;-80
2023/09/10 05:05:42;;;;;;;;;;;17.90;99.90;;;;;;5023920;28;19999;-81
2023/09/10 05:08:07;;;;;;;;;;;18.00;99.90;;;;;;5030449;28;19952;-81
2023/09/10 05:10:33;;;;;;;;;;;18.10;99.90;;;;;;5025913;28;19916;-80
2023/09/10 05:12:58;;;;;;;;;;;18.30;99.90;;;;;;5030133;28;20295;-80
2023/09/10 05:15:24;;;;;;;;;;;18.50;99.90;;;;;;5025970;28;19956;-80
2023/09/10 05:17:49;;;;;;;;;;;18.60;99.90;;;;;;5033900;28;19905;-80
2023/09/10 05:20:15;;;;;;;;;;;18.80;99.90;;;;;;5027210;28;20432;-80
2023/09/10 05:22:40;;;;;;;;;;;18.90;99.90;;;;;;5030930;28;19996;-78
2023/09/10 05:25:06;;;;;;;;;;;18.90;99.90;;;;;;5027344;28;19945;-80
2023/09/10 05:27:32;;;;;;;;;;;19.00;99.90;;;;;;5030989;28;19996;-80
2023/09/10 05:29:57;;;;;;;;;;;18.90;99.90;;;;;;5026634;28;20000;-79
2023/09/10 05:32:23;;;;;;;;;;;19.00;99.90;;;;;;5035176;28;19947;-79
2023/09/10 05:34:48;;;;;;;;;;;18.90;99.90;;;;;;5026633;28;19925;-79
2023/09/10 05:37:14;;;;;;;;;;;18.90;99.90;;;;;;5027781;28;19921;-79
2023/09/10 05:39:39;;;;;;;;;;;18.90;99.90;;;;;;5023241;28;19905;-81
2023/09/10 05:42:05;;;;;;;;;;;18.90;99.90;;;;;;5033602;28;19909;-80
2023/09/10 05:44:30;;;;;;;;;;;18.80;99.90;;;;;;5028972;28;19952;-79
2023/09/10 05:46:56;;;;;;;;;;;18.80;99.90;;;;;;5032850;28;19931;-79
2023/09/10 05:49:21;;;;;;;;;;;18.90;99.90;;;;;;5028313;28;19909;-80
2023/09/10 05:51:47;;;;;;;;;;;19.00;99.90;;;;;;5028424;28;19913;-80
2023/09/10 05:54:12;;;;;;;;;;;19.10;99.90;;;;;;5032320;28;20640;-78
2023/09/10 05:56:38;;;;;;;;;;;19.10;99.90;;;;;;5035690;28;20296;-77
2023/09/10 05:59:05;;;;;;;;;;;19.10;99.90;;;;;;5022504;28;19926;-78
2023/09/10 06:01:31;;;;;;;;;;;19.10;99.90;;;;;;5030376;28;20009;-79
2023/09/10 06:03:57;;;;;;;;;;;19.10;99.90;;;;;;5022989;28;19949;-78
2023/09/10 06:06:22;;;;;;;;;;;19.20;99.90;;;;;;5030387;28;19932;-78
2023/09/10 06:08:48;;;;;;;;;;;19.20;99.90;;;;;;5034253;28;19905;-78
2023/09/10 06:11:13;;;;;;;;;;;19.20;99.90;;;;;;5036672;28;19932;-79
2023/09/10 06:13:39;;;;;;;;;;;19.30;99.90;;;;;;5034624;28;19972;-79
2023/09/10 06:16:04;;;;;;;;;;;19.30;99.90;;;;;;5037124;28;19947;-78
2023/09/10 06:18:30;;;;;;;;;;;19.30;99.90;;;;;;5034313;28;19914;-78
2023/09/10 06:20:55;;;;;;;;;;;19.40;99.90;;;;;;5035512;28;19909;-78
2023/09/10 06:23:21;;;;;;;;;;;19.50;99.90;;;;;;5031335;28;19909;-80
2023/09/10 06:25:47;;;;;;;;;;;19.50;99.90;;;;;;5032123;28;20383;-78
2023/09/10 06:28:12;;;;;;;;;;;19.50;99.90;;;;;;5025994;28;20234;-78
2023/09/10 06:30:38;;;;;;;;;;;19.70;99.90;;;;;;5024838;28;19905;-77
2023/09/10 06:33:04;;;;;;;;;;;19.80;99.90;;;;;;5026166;28;19905;-76
2023/09/10 06:35:30;;;;;;;;;;;19.90;99.90;;;;;;5031566;28;19917;-77
2023/09/10 06:37:55;;;;;;;;;;;20.00;99.90;;;;;;5034595;28;20000;-77
2023/09/10 06:40:21;;;;;;;;;;;20.10;99.90;;;;;;5031623;28;20403;-78
2023/09/10 06:42:46;;;;;;;;;;;20.10;99.90;;;;;;5026116;28;19960;-78
2023/09/10 06:45:12;;;;;;;;;;;20.20;99.90;;;;;;5029089;28;20369;-77
2023/09/10 06:47:37;;;;;;;;;;;20.30;99.90;;;;;;5026208;28;19941;-77
2023/09/10 06:50:03;;;;;;;;;;;20.40;99.90;;;;;;5023644;28;19949;-77
2023/09/10 06:52:28;;;;;;;;;;;20.40;99.90;;;;;;5026261;28;19928;-77
2023/09/10 06:54:54;;;;;;;;;;;20.50;99.90;;;;;;5018050;28;19952;-77
2023/09/10 06:57:19;;;;;;;;;;;20.50;99.90;;;;;;5026184;28;19956;-81
2023/09/10 06:59:45;;;;;;;;;;;20.60;99.90;;;;;;5021880;28;19913;-76
2023/09/10 07:02:11;;;;;;;;;;;20.70;99.90;;;;;;5024996;28;19905;-80
2023/09/10 07:04:36;;;;;;;;;;;20.80;99.90;;;;;;5031410;28;19959;-79
2023/09/10 07:07:02;;;;;;;;;;;20.90;99.90;;;;;;5025571;28;19917;-77
2023/09/10 07:09:28;;;;;;;;;;;20.90;99.90;;;;;;5021940;28;19909;-76
2023/09/10 07:11:54;;;;;;;;;;;20.90;99.90;;;;;;5021842;28;20401;-76
2023/09/10 07:14:20;;;;;;;;;;;21.10;99.90;;;;;;5021504;28;19909;-76
2023/09/10 07:16:46;;;;;;;;;;;21.20;99.90;;;;;;5020298;28;19948;-77
2023/09/10 07:19:12;;;;;;;;;;;21.30;99.90;;;;;;5029517;28;19912;-76
2023/09/10 07:21:38;;;;;;;;;;;21.50;99.90;;;;;;5049907;28;19909;-77
2023/09/10 07:24:06;;;;;;;;;;;21.70;99.90;;;;;;5026997;28;19913;-79
2023/09/10 07:26:32;;;;;;;;;;;21.80;99.90;;;;;;5026296;28;19909;-79
2023/09/10 07:28:58;;;;;;;;;;;21.90;99.90;;;;;;5032649;28;19909;-80
2023/09/10 07:31:23;;;;;;;;;;;22.00;99.90;;;;;;5023734;28;20452;-78
2023/09/10 07:33:49;;;;;;;;;;;22.10;99.90;;;;;;5028580;28;19909;-77
2023/09/10 07:36:14;;;;;;;;;;;22.20;99.90;;;;;;5030372;28;19917;-81
2023/09/10 07:38:40;;;;;;;;;;;22.30;99.90;;;;;;5046496;28;19909;-77
2023/09/10 07:41:06;;;;;;;;;;;22.30;99.90;;;;;;5026295;28;20376;-78
2023/09/10 07:43:31;;;;;;;;;;;22.40;99.90;;;;;;5026017;28;19921;-81
2023/09/10 07:45:56;;;;;;;;;;;22.40;99.90;;;;;;5039962;28;19921;-77
2023/09/10 07:48:22;;;;;;;;;;;22.70;99.90;;;;;;5019550;28;19956;-80
2023/09/10 07:50:57;;;;;;;;;;;22.80;99.90;;;;;;5019581;28;19905;-80
2023/09/10 07:53:23;;;;;;;;;;;22.80;99.90;;;;;;5029970;28;19951;-77
2023/09/10 07:55:49;;;;;;;;;;;23.00;99.90;;;;;;5039282;28;19909;-78
2023/09/10 07:58:14;;;;;;;;;;;23.00;99.90;;;;;;5028426;28;19912;-78
2023/09/10 08:00:40;;;;;;;;;;;23.10;99.90;;;;;;5030478;28;19992;-79
2023/09/10 08:03:06;;;;;;;;;;;23.20;99.90;;;;;;5033633;28;19909;-78
2023/09/10 08:05:33;;;;;;;;;;;23.30;99.90;;;;;;5030562;28;20371;-77
2023/09/10 08:08:02;;;;;;;;;;;23.40;99.90;;;;;;5033906;28;19959;-78
2023/09/10 08:10:28;;;;;;;;;;;23.40;99.90;;;;;;5029388;28;19929;-79
2023/09/10 08:12:54;;;;;;;;;;;23.50;99.90;;;;;;5025421;28;19905;-79
2023/09/10 08:15:19;;;;;;;;;;;23.50;99.90;;;;;;5046471;28;19920;-79
2023/09/10 08:17:45;;;;;;;;;;;23.50;99.90;;;;;;5033783;28;19909;-80
2023/09/10 08:20:11;;;;;;;;;;;23.60;99.90;;;;;;5020624;28;19906;-79
2023/09/10 08:22:37;;;;;;;;;;;23.70;99.90;;;;;;5028601;28;20312;-75
2023/09/10 08:25:04;;;;;;;;;;;23.70;99.90;;;;;;5020250;28;19917;-80
2023/09/10 08:27:29;;;;;;;;;;;23.90;99.90;;;;;;5028837;28;19909;-78
2023/09/10 08:29:55;;;;;;;;;;;24.00;99.90;;;;;;5033244;28;20395;-79
2023/09/10 08:32:20;;;;;;;;;;;24.10;99.90;;;;;;5034749;28;19905;-78
2023/09/10 08:34:46;;;;;;;;;;;24.20;99.90;;;;;;5032966;28;19905;-78
2023/09/10 08:37:12;;;;;;;;;;;24.20;99.90;;;;;;5028862;28;19917;-79
2023/09/10 08:39:38;;;;;;;;;;;24.30;99.90;;;;;;5018266;28;19905;-78
2023/09/10 08:42:26;;;;;;;;;;;24.40;99.90;;;;;;5031947;28;19913;-78
2023/09/10 08:44:56;;;;;;;;;;;24.50;99.90;;;;;;5043826;28;19917;-79
2023/09/10 08:47:22;;;;;;;;;;;24.60;99.90;;;;;;5033004;28;19905;-81
2023/09/10 08:49:50;;;;;;;;;;;24.70;99.90;;;;;;5021861;28;19906;-79
2023/09/10 08:52:17;;;;;;;;;;;24.70;99.90;;;;;;5026788;28;21251;-78
2023/09/10 08:54:43;;;;;;;;;;;24.70;99.90;;;;;;5022860;28;19912;-80
2023/09/10 08:57:10;;;;;;;;;;;24.80;99.90;;;;;;5025634;28;19909;-77
2023/09/10 08:59:36;;;;;;;;;;;24.90;99.90;;;;;;5023359;28;19916;-76
2023/09/10 09:02:02;;;;;;;;;;;24.90;99.90;;;;;;5027024;28;20427;-80
2023/09/10 09:04:27;;;;;;;;;;;24.90;99.90;;;;;;5029287;28;20323;-78
2023/09/10 09:06:54;;;;;;;;;;;24.90;99.90;;;;;;5026082;28;19912;-76
2023/09/10 09:09:22;;;;;;;;;;;25.00;99.90;;;;;;5029609;28;19909;-78
2023/09/10 09:11:48;;;;;;;;;;;25.20;99.90;;;;;;5026314;28;19958;-78
2023/09/10 09:14:14;;;;;;;;;;;25.30;99.90;;;;;;5029985;28;19905;-79
2023/09/10 09:16:40;;;;;;;;;;;25.30;99.90;;;;;;5026494;28;19999;-78
2023/09/10 09:19:10;;;;;;;;;;;25.50;99.90;;;;;;5025529;28;19916;-78
2023/09/10 09:21:38;;;;;;;;;;;25.50;99.90;;;;;;5029081;28;20467;-79
2023/09/10 09:24:05;;;;;;;;;;;25.60;99.90;;;;;;5025947;28;19920;-77
2023/09/10 09:26:32;;;;;;;;;;;25.50;99.90;;;;;;5028554;28;19914;-78
2023/09/10 09:28:58;;;;;;;;;;;25.60;99.90;;;;;;5034151;28;19905;-79
2023/09/10 09:31:24;;;;;;;;;;;25.60;99.90;;;;;;5026634;28;19928;-80
2023/09/10 09:33:50;;;;;;;;;;;25.70;99.90;;;;;;5024640;28;19963;-79
2023/09/10 09:36:16;;;;;;;;;;;25.70;99.90;;;;;;5031271;28;20020;-76
2023/09/10 09:38:46;;;;;;;;;;;25.80;99.90;;;;;;5029210;28;19949;-77
2023/09/10 09:41:15;;;;;;;;;;;25.90;99.90;;;;;;5026075;28;19959;-77
2023/09/10 09:43:41;;;;;;;;;;;26.00;99.90;;;;;;5031251;28;20051;-79
2023/09/10 09:46:06;;;;;;;;;;;26.20;99.90;;;;;;5025863;28;19944;-77
2023/09/10 09:48:33;;;;;;;;;;;26.20;99.90;;;;;;5026407;28;19973;-77
2023/09/10 09:50:59;;;;;;;;;;;26.20;99.90;;;;;;5041695;28;19909;-78
2023/09/10 09:53:25;;;;;;;;;;;26.20;99.90;;;;;;5025548;28;20039;-78
2023/09/10 09:55:53;;;;;;;;;;;26.30;99.90;;;;;;5026264;28;19924;-77
2023/09/10 09:58:19;;;;;;;;;;;26.30;99.90;;;;;;5027061;28;20335;-77
2023/09/10 10:00:44;;;;;;;;;;;26.40;99.90;;;;;;5025838;28;19955;-77
2023/09/10 10:03:11;;;;;;;;;;;26.40;99.90;;;;;;5033626;28;20293;-78
2023/09/10 10:05:37;;;;;;;;;;;26.40;99.90;;;;;;5025564;28;19985;-78
2023/09/10 10:08:03;;;;;;;;;;;26.50;99.90;;;;;;5034260;28;19909;-77
2023/09/10 10:10:29;;;;;;;;;;;26.60;99.90;;;;;;5028267;28;19905;-78
2023/09/10 10:12:54;;;;;;;;;;;26.80;99.90;;;;;;5038270;28;19905;-79
2023/09/10 10:15:21;;;;;;;;;;;26.70;99.90;;;;;;5033474;28;20380;-77
2023/09/10 10:17:47;;;;;;;;;;;26.80;99.90;;;;;;5032179;28;19955;-77
2023/09/10 10:20:13;;;;;;;;;;;26.80;99.90;;;;;;5038451;28;19909;-76
2023/09/10 10:22:39;;;;;;;;;;;26.80;99.90;;;;;;5039187;28;19905;-78
2023/09/10 10:25:06;;;;;;;;;;;26.80;99.90;;;;;;5024059;28;19909;-78
2023/09/10 10:27:33;;;;;;;;;;;26.90;99.90;;;;;;5035310;28;20004;-78
2023/09/10 10:29:58;;;;;;;;;;;26.90;99.90;;;;;;5031276;28;19927;-81
2023/09/10 10:32:40;;;;;;;;;;;27.10;99.90;;;;;;5034835;28;20369;-79
2023/09/10 10:35:06;;;;;;;;;;;27.00;99.90;;;;;;5034746;28;19905;-78
2023/09/10 10:37:34;;;;;;;;;;;27.00;99.90;;;;;;5037771;28;19919;-81
2023/09/10 10:40:13;;;;;;;;;;;27.10;99.90;;;;;;5032251;28;20000;-79
2023/09/10 10:42:50;;;;;;;;;;;27.10;99.90;;;;;;5032387;28;19913;-80
2023/09/10 10:45:17;;;;;;;;;;;27.20;99.90;;;;;;5021044;28;19909;-79
2023/09/10 10:47:44;;;;;;;;;;;27.20;98.90;;;;;;5019310;28;19963;-81
2023/09/10 10:50:10;;;;;;;;;;;27.20;99.90;;;;;;5020862;28;19980;-79
2023/09/10 10:52:38;;;;;;;;;;;27.20;99.10;;;;;;5020934;28;19917;-82
2023/09/10 10:55:04;;;;;;;;;;;27.20;99.90;;;;;;5020616;28;19905;-76
2023/09/10 10:57:30;;;;;;;;;;;27.20;99.20;;;;;;5022018;28;19909;-79
2023/09/10 10:59:56;;;;;;;;;;;27.20;99.80;;;;;;5032589;28;19912;-79
2023/09/10 11:02:22;;;;;;;;;;;27.30;99.90;;;;;;5021829;28;20000;-77
2023/09/10 11:04:57;;;;;;;;;;;27.30;99.40;;;;;;5021016;28;19909;-78
2023/09/10 11:07:23;;;;;;;;;;;27.50;99.50;;;;;;5019294;28;19958;-79
2023/09/10 11:09:49;;;;;;;;;;;27.40;98.70;;;;;;5032075;28;19905;-80
2023/09/10 11:12:15;;;;;;;;;;;27.50;98.80;;;;;;5026274;28;19916;-78
2023/09/10 11:14:59;;;;;;;;;;;27.50;98.80;;;;;;5026497;28;19913;-77
2023/09/10 11:17:29;;;;;;;;;;;27.60;99.40;;;;;;5028993;28;19909;-78
2023/09/10 11:19:55;;;;;;;;;;;27.70;99.50;;;;;;5032573;28;19909;-78
2023/09/10 11:22:21;;;;;;;;;;;27.70;98.60;;;;;;5020369;28;19915;-79
2023/09/10 11:25:07;;;;;;;;;;;27.80;97.30;;;;;;5032575;28;19909;-78
2023/09/10 11:27:34;;;;;;;;;;;27.70;97.50;;;;;;5032327;28;19956;-81
2023/09/10 11:30:06;;;;;;;;;;;27.80;99.90;;;;;;5021441;28;19909;-77
2023/09/10 11:32:32;;;;;;;;;;;28.00;97.20;;;;;;5031453;28;19948;-78
2023/09/10 11:35:16;;;;;;;;;;;28.10;97.50;;;;;;5020380;28;19909;-79
2023/09/10 11:37:45;;;;;;;;;;;28.20;97.70;;;;;;5033217;28;20277;-80
2023/09/10 11:40:12;;;;;;;;;;;28.30;98.10;;;;;;5027685;28;19905;-77
2023/09/10 11:42:38;;;;;;;;;;;28.30;97.00;;;;;;5027316;28;19905;-80
2023/09/10 11:45:04;;;;;;;;;;;28.20;95.90;;;;;;5030820;28;19913;-80
2023/09/10 11:47:29;;;;;;;;;;;28.30;96.70;;;;;;5024172;28;19921;-79
2023/09/10 11:50:01;;;;;;;;;;;28.40;97.60;;;;;;5026652;28;19909;-79
2023/09/10 11:52:28;;;;;;;;;;;28.30;97.40;;;;;;5026147;28;19906;-81
2023/09/10 11:54:54;;;;;;;;;;;28.40;97.00;;;;;;5032656;28;20039;-81
2023/09/10 11:57:20;;;;;;;;;;;28.50;96.00;;;;;;5020702;28;19906;-80
2023/09/10 11:59:49;;;;;;;;;;;28.60;95.00;;;;;;5035470;28;19909;-79
2023/09/10 12:02:15;;;;;;;;;;;28.60;95.70;;;;;;5028506;28;19909;-80
2023/09/10 12:04:40;;;;;;;;;;;28.70;94.10;;;;;;5018266;28;20400;-78
2023/09/10 12:07:06;;;;;;;;;;;28.80;95.20;;;;;;5018915;28;19917;-78
2023/09/10 12:09:31;;;;;;;;;;;28.90;93.40;;;;;;5027389;28;19935;-79
2023/09/10 12:12:19;;;;;;;;;;;28.90;95.50;;;;;;5031164;28;19932;-79
2023/09/10 12:14:44;;;;;;;;;;;28.90;93.40;;;;;;5034203;28;19909;-78
2023/09/10 12:17:10;;;;;;;;;;;29.00;93.80;;;;;;5033474;28;19912;-79
2023/09/10 12:19:36;;;;;;;;;;;29.00;94.10;;;;;;5031399;28;19909;-79
2023/09/10 12:22:04;;;;;;;;;;;29.10;92.90;;;;;;5029617;28;19913;-79
2023/09/10 12:24:30;;;;;;;;;;;29.30;93.70;;;;;;5031054;28;19913;-79
2023/09/10 12:26:55;;;;;;;;;;;29.40;93.00;;;;;;5017574;28;19909;-81
2023/09/10 12:29:21;;;;;;;;;;;29.40;92.50;;;;;;5023810;28;19905;-80
2023/09/10 12:31:52;;;;;;;;;;;29.40;91.00;;;;;;5020324;28;19912;-79
2023/09/10 12:34:18;;;;;;;;;;;29.50;90.40;;;;;;5024669;28;19909;-80
2023/09/10 12:36:45;;;;;;;;;;;29.50;91.00;;;;;;5028061;28;19969;-81
2023/09/10 12:39:20;;;;;;;;;;;29.60;90.70;;;;;;5025448;28;20832;-79
2023/09/10 12:41:49;;;;;;;;;;;29.50;90.20;;;;;;5028370;28;19909;-77
2023/09/10 12:44:15;;;;;;;;;;;29.40;90.00;;;;;;5026304;28;19943;-80
2023/09/10 12:46:40;;;;;;;;;;;29.50;90.20;;;;;;5020780;28;20024;-80
2023/09/10 12:49:06;;;;;;;;;;;29.60;91.20;;;;;;5024755;28;20377;-79
2023/09/10 12:51:32;;;;;;;;;;;29.70;90.30;;;;;;5020843;28;19928;-81
2023/09/10 12:53:57;;;;;;;;;;;29.60;88.80;;;;;;5025294;28;19999;-80
2023/09/10 12:56:24;;;;;;;;;;;29.70;90.00;;;;;;5021309;28;19910;-79
2023/09/10 12:58:49;;;;;;;;;;;29.80;90.40;;;;;;5025967;28;20292;-77
2023/09/10 13:01:15;;;;;;;;;;;29.90;86.40;;;;;;5021609;28;19913;-79
2023/09/10 13:03:41;;;;;;;;;;;30.00;89.50;;;;;;5024598;28;19912;-78
2023/09/10 13:06:06;;;;;;;;;;;30.10;86.90;;;;;;5019983;28;19912;-78
2023/09/10 13:08:32;;;;;;;;;;;30.20;85.00;;;;;;5024351;28;19956;-78
2023/09/10 13:11:00;;;;;;;;;;;30.10;84.30;;;;;;5027598;28;20262;-80
2023/09/10 13:13:25;;;;;;;;;;;30.20;88.90;;;;;;5032723;28;19905;-79
2023/09/10 13:15:51;;;;;;;;;;;29.90;85.40;;;;;;5020958;28;19910;-79
2023/09/10 13:18:16;;;;;;;;;;;30.00;89.00;;;;;;5031348;28;19905;-78
2023/09/10 13:20:42;;;;;;;;;;;30.20;83.50;;;;;;5018969;28;19906;-78
2023/09/10 13:23:07;;;;;;;;;;;30.40;87.30;;;;;;5023930;28;19911;-78
2023/09/10 13:25:33;;;;;;;;;;;30.60;85.80;;;;;;5019733;28;19909;-80
2023/09/10 13:27:58;;;;;;;;;;;30.70;84.20;;;;;;5023765;28;19913;-78
2023/09/10 13:30:24;;;;;;;;;;;30.90;87.90;;;;;;5027015;28;20373;-79
2023/09/10 13:32:49;;;;;;;;;;;30.80;83.90;;;;;;5025019;28;19906;-80
2023/09/10 13:35:15;;;;;;;;;;;31.00;87.20;;;;;;5020298;28;19909;-78
2023/09/10 13:37:41;;;;;;;;;;;31.10;83.90;;;;;;5031460;28;19952;-78
2023/09/10 13:40:07;;;;;;;;;;;31.10;82.50;;;;;;5019933;28;19920;-79
2023/09/10 13:42:33;;;;;;;;;;;31.10;84.20;;;;;;5031551;28;19909;-79
2023/09/10 13:44:58;;;;;;;;;;;31.30;81.30;;;;;;5025525;28;19936;-78
2023/09/10 13:47:24;;;;;;;;;;;31.50;78.60;;;;;;5019426;28;19935;-78
2023/09/10 13:49:49;;;;;;;;;;;31.50;80.30;;;;;;5020030;28;19916;-78
2023/09/10 13:52:15;;;;;;;;;;;31.50;81.90;;;;;;5024291;28;19909;-79
2023/09/10 13:54:40;;;;;;;;;;;31.70;84.90;;;;;;5020458;28;19901;-78
2023/09/10 13:57:06;;;;;;;;;;;31.60;83.00;;;;;;5033169;28;19909;-78
2023/09/10 13:59:32;;;;;;;;;;;31.70;84.90;;;;;;5027078;28;20011;-77
2023/09/10 14:01:57;;;;;;;;;;;31.70;84.20;;;;;;5024612;28;20454;-79
2023/09/10 14:04:25;;;;;;;;;;;31.80;84.10;;;;;;5026763;28;20266;-78
2023/09/10 14:06:51;;;;;;;;;;;31.70;79.40;;;;;;5025932;28;20407;-78
2023/09/10 14:09:16;;;;;;;;;;;31.50;80.70;;;;;;5022545;28;19909;-79
2023/09/10 14:11:42;;;;;;;;;;;31.40;82.00;;;;;;5026175;28;20435;-77